sensor_id;sensor_type;location;lat;lon;timestamp;temperature;humidity
8332;DHT22;4203;48.144;14.118;2023-06-14T00:01:48;9.50;99.90
8332;DHT22;4203;48.144;14.118;2023-06-14T00:04:15;9.50;99.90
8332;DHT22;4203;48.144;14.118;2023-06-14T00:06:44;9.50;99.90
8332;DHT22;4203;48.144;14.118;2023-06-14T00:09:11;9.50;99.90
8332;DHT22;4203;48.144;14.118;2023-06-14T00:11:39;9.50;99.90
8332;DHT22;4203;48.144;14.118;2023-06-14T00:14:07;9.50;99.90
8332;DHT22;4203;48.144;14.118;2023-06-14T00:16:34;9.50;99.90
8332;DHT22;4203;48.144;14.118;2023-06-14T00:19:04;9.40;99.90
8332;DHT22;4203;48.144;14.118;2023-06-14T00:21:31;9.40;99.90
8332;DHT22;4203;48.144;14.118;2023-06-14T00:23:59;9.40;99.90
8332;DHT22;4203;48.144;14.118;2023-06-14T00:26:26;9.30;99.90
8332;DHT22;4203;48.144;14.118;2023-06-14T00:28:54;9.30;99.90
8332;DHT22;4203;48.144;14.118;2023-06-14T00:31:22;9.20;99.90
8332;DHT22;4203;48.144;14.118;2023-06-14T00:33:49;9.10;99.90
8332;DHT22;4203;48.144;14.118;2023-06-14T00:36:18;9.10;99.90
8332;DHT22;4203;48.144;14.118;2023-06-14T00:38:45;9.10;99.90
8332;DHT22;4203;48.144;14.118;2023-06-14T00:41:12;9.10;99.90
8332;DHT22;4203;48.144;14.118;2023-06-14T00:43:39;9.10;99.90
8332;DHT22;4203;48.144;14.118;2023-06-14T00:46:06;9.10;99.90
8332;DHT22;4203;48.144;14.118;2023-06-14T00:48:34;9.10;99.90
8332;DHT22;4203;48.144;14.118;2023-06-14T00:51:02;9.10;99.90
8332;DHT22;4203;48.144;14.118;2023-06-14T00:53:32;9.00;99.90
8332;DHT22;4203;48.144;14.118;2023-06-14T00:56:01;9.00;99.90
8332;DHT22;4203;48.144;14.118;2023-06-14T00:58:28;8.90;99.90
8332;DHT22;4203;48.144;14.118;2023-06-14T01:00:56;8.80;99.90
8332;DHT22;4203;48.144;14.118;2023-06-14T01:03:23;8.80;99.90
8332;DHT22;4203;48.144;14.118;2023-06-14T01:05:56;8.80;99.90
8332;DHT22;4203;48.144;14.118;2023-06-14T01:08:37;8.80;99.90
8332;DHT22;4203;48.144;14.118;2023-06-14T01:11:10;8.90;99.90
8332;DHT22;4203;48.144;14.118;2023-06-14T01:13:40;8.90;99.90
8332;DHT22;4203;48.144;14.118;2023-06-14T01:16:11;8.80;99.90
8332;DHT22;4203;48.144;14.118;2023-06-14T01:18:38;8.80;99.90
8332;DHT22;4203;48.144;14.118;2023-06-14T01:21:20;8.70;99.90
8332;DHT22;4203;48.144;14.118;2023-06-14T01:23:49;8.70;99.90
8332;DHT22;4203;48.144;14.118;2023-06-14T01:26:20;8.60;99.90
8332;DHT22;4203;48.144;14.118;2023-06-14T01:28:49;8.60;99.90
8332;DHT22;4203;48.144;14.118;2023-06-14T01:31:19;8.60;99.90
8332;DHT22;4203;48.144;14.118;2023-06-14T01:33:48;8.60;99.90
8332;DHT22;4203;48.144;14.118;2023-06-14T01:36:17;8.60;99.90
8332;DHT22;4203;48.144;14.118;2023-06-14T01:38:46;8.50;99.90
8332;DHT22;4203;48.144;14.118;2023-06-14T01:41:16;8.50;99.90
8332;DHT22;4203;48.144;14.118;2023-06-14T01:43:43;8.50;99.90
8332;DHT22;4203;48.144;14.118;2023-06-14T01:46:11;8.50;99.90
8332;DHT22;4203;48.144;14.118;2023-06-14T01:48:40;8.40;99.90
8332;DHT22;4203;48.144;14.118;2023-06-14T01:51:07;8.40;99.90
8332;DHT22;4203;48.144;14.118;2023-06-14T01:53:34;8.30;99.90
8332;DHT22;4203;48.144;14.118;2023-06-14T01:56:02;8.30;99.90
8332;DHT22;4203;48.144;14.118;2023-06-14T01:58:30;8.40;99.90
8332;DHT22;4203;48.144;14.118;2023-06-14T02:00:58;8.30;99.90
8332;DHT22;4203;48.144;14.118;2023-06-14T02:03:26;8.30;99.90
8332;DHT22;4203;48.144;14.118;2023-06-14T02:05:53;8.30;99.90
8332;DHT22;4203;48.144;14.118;2023-06-14T02:08:21;8.30;99.90
8332;DHT22;4203;48.144;14.118;2023-06-14T02:10:49;8.20;99.90
8332;DHT22;4203;48.144;14.118;2023-06-14T02:13:16;8.30;99.90
8332;DHT22;4203;48.144;14.118;2023-06-14T02:15:44;8.30;99.90
8332;DHT22;4203;48.144;14.118;2023-06-14T02:18:12;8.20;99.90
8332;DHT22;4203;48.144;14.118;2023-06-14T02:20:39;8.10;99.90
8332;DHT22;4203;48.144;14.118;2023-06-14T02:23:06;8.10;99.90
8332;DHT22;4203;48.144;14.118;2023-06-14T02:25:34;8.10;99.90
8332;DHT22;4203;48.144;14.118;2023-06-14T02:28:01;8.10;99.90
8332;DHT22;4203;48.144;14.118;2023-06-14T02:30:29;8.10;99.90
8332;DHT22;4203;48.144;14.118;2023-06-14T02:32:58;8.00;99.90
8332;DHT22;4203;48.144;14.118;2023-06-14T02:35:26;8.00;99.90
8332;DHT22;4203;48.144;14.118;2023-06-14T02:37:53;8.00;99.90
8332;DHT22;4203;48.144;14.118;2023-06-14T02:40:21;8.00;99.90
8332;DHT22;4203;48.144;14.118;2023-06-14T02:42:48;8.00;99.90
8332;DHT22;4203;48.144;14.118;2023-06-14T02:45:15;8.00;99.90
8332;DHT22;4203;48.144;14.118;2023-06-14T02:47:42;8.00;99.90
8332;DHT22;4203;48.144;14.118;2023-06-14T02:50:11;8.00;99.90
8332;DHT22;4203;48.144;14.118;2023-06-14T02:52:38;8.00;99.90
8332;DHT22;4203;48.144;14.118;2023-06-14T02:55:07;7.90;99.90
8332;DHT22;4203;48.144;14.118;2023-06-14T02:57:35;7.90;99.90
8332;DHT22;4203;48.144;14.118;2023-06-14T03:00:03;7.90;99.90
8332;DHT22;4203;48.144;14.118;2023-06-14T03:02:30;7.90;99.90
8332;DHT22;4203;48.144;14.118;2023-06-14T03:04:57;8.00;99.90
8332;DHT22;4203;48.144;14.118;2023-06-14T03:07:28;8.00;99.90
8332;DHT22;4203;48.144;14.118;2023-06-14T03:09:56;8.00;99.90
8332;DHT22;4203;48.144;14.118;2023-06-14T03:12:23;8.00;99.90
8332;DHT22;4203;48.144;14.118;2023-06-14T03:14:50;7.90;99.90
8332;DHT22;4203;48.144;14.118;2023-06-14T03:17:17;7.90;99.90
8332;DHT22;4203;48.144;14.118;2023-06-14T03:19:45;7.90;99.90
8332;DHT22;4203;48.144;14.118;2023-06-14T03:22:12;7.90;99.90
8332;DHT22;4203;48.144;14.118;2023-06-14T03:24:40;7.90;99.90
8332;DHT22;4203;48.144;14.118;2023-06-14T03:27:08;7.90;99.90
8332;DHT22;4203;48.144;14.118;2023-06-14T03:29:36;7.90;99.90
8332;DHT22;4203;48.144;14.118;2023-06-14T03:32:03;7.90;99.90
8332;DHT22;4203;48.144;14.118;2023-06-14T03:34:31;7.90;99.90
8332;DHT22;4203;48.144;14.118;2023-06-14T03:36:58;7.90;99.90
8332;DHT22;4203;48.144;14.118;2023-06-14T03:39:25;7.90;99.90
8332;DHT22;4203;48.144;14.118;2023-06-14T03:41:53;8.00;99.90
8332;DHT22;4203;48.144;14.118;2023-06-14T03:44:21;8.00;99.90
8332;DHT22;4203;48.144;14.118;2023-06-14T03:46:48;8.20;99.90
8332;DHT22;4203;48.144;14.118;2023-06-14T03:49:15;8.30;99.90
8332;DHT22;4203;48.144;14.118;2023-06-14T03:51:42;8.30;99.90
8332;DHT22;4203;48.144;14.118;2023-06-14T03:54:10;8.40;99.90
8332;DHT22;4203;48.144;14.118;2023-06-14T03:56:37;8.40;99.90
8332;DHT22;4203;48.144;14.118;2023-06-14T03:59:06;8.40;99.90
8332;DHT22;4203;48.144;14.118;2023-06-14T04:01:33;8.50;99.90
8332;DHT22;4203;48.144;14.118;2023-06-14T04:04:00;8.60;99.90
8332;DHT22;4203;48.144;14.118;2023-06-14T04:06:27;8.70;99.90
8332;DHT22;4203;48.144;14.118;2023-06-14T04:08:59;8.90;99.90
8332;DHT22;4203;48.144;14.118;2023-06-14T04:11:30;9.10;99.90
8332;DHT22;4203;48.144;14.118;2023-06-14T04:13:58;9.20;99.90
8332;DHT22;4203;48.144;14.118;2023-06-14T04:16:27;9.40;99.90
8332;DHT22;4203;48.144;14.118;2023-06-14T04:18:54;9.70;99.90
8332;DHT22;4203;48.144;14.118;2023-06-14T04:21:23;9.80;99.90
8332;DHT22;4203;48.144;14.118;2023-06-14T04:23:53;10.00;99.90
8332;DHT22;4203;48.144;14.118;2023-06-14T04:26:21;10.20;99.90
8332;DHT22;4203;48.144;14.118;2023-06-14T04:28:49;10.40;99.90
8332;DHT22;4203;48.144;14.118;2023-06-14T04:31:17;10.60;99.90
8332;DHT22;4203;48.144;14.118;2023-06-14T04:33:46;10.80;99.90
8332;DHT22;4203;48.144;14.118;2023-06-14T04:36:13;11.00;99.90
8332;DHT22;4203;48.144;14.118;2023-06-14T04:38:43;11.30;99.90
8332;DHT22;4203;48.144;14.118;2023-06-14T04:41:12;11.50;99.90
8332;DHT22;4203;48.144;14.118;2023-06-14T04:43:39;11.80;99.90
8332;DHT22;4203;48.144;14.118;2023-06-14T04:46:06;12.00;99.90
8332;DHT22;4203;48.144;14.118;2023-06-14T04:48:37;12.20;99.90
8332;DHT22;4203;48.144;14.118;2023-06-14T04:51:08;12.40;99.90
8332;DHT22;4203;48.144;14.118;2023-06-14T04:53:36;12.60;99.90
8332;DHT22;4203;48.144;14.118;2023-06-14T04:56:04;12.70;99.90
8332;DHT22;4203;48.144;14.118;2023-06-14T04:58:31;12.90;99.90
8332;DHT22;4203;48.144;14.118;2023-06-14T05:00:59;13.00;99.90
8332;DHT22;4203;48.144;14.118;2023-06-14T05:03:27;13.10;99.90
8332;DHT22;4203;48.144;14.118;2023-06-14T05:05:56;13.10;99.90
8332;DHT22;4203;48.144;14.118;2023-06-14T05:08:24;13.00;99.90
8332;DHT22;4203;48.144;14.118;2023-06-14T05:10:52;13.00;99.90
8332;DHT22;4203;48.144;14.118;2023-06-14T05:13:19;13.20;99.90
8332;DHT22;4203;48.144;14.118;2023-06-14T05:15:48;13.30;99.90
8332;DHT22;4203;48.144;14.118;2023-06-14T05:18:15;13.30;99.90
8332;DHT22;4203;48.144;14.118;2023-06-14T05:20:43;13.50;99.90
8332;DHT22;4203;48.144;14.118;2023-06-14T05:23:11;13.80;99.90
8332;DHT22;4203;48.144;14.118;2023-06-14T05:25:42;14.00;99.90
8332;DHT22;4203;48.144;14.118;2023-06-14T05:28:11;14.30;99.90
8332;DHT22;4203;48.144;14.118;2023-06-14T05:30:38;14.50;99.90
8332;DHT22;4203;48.144;14.118;2023-06-14T05:33:06;14.80;99.90
8332;DHT22;4203;48.144;14.118;2023-06-14T05:35:33;14.90;99.90
8332;DHT22;4203;48.144;14.118;2023-06-14T05:38:01;15.00;99.90
8332;DHT22;4203;48.144;14.118;2023-06-14T05:40:28;15.10;99.90
8332;DHT22;4203;48.144;14.118;2023-06-14T05:42:56;15.30;99.90
8332;DHT22;4203;48.144;14.118;2023-06-14T05:45:24;15.40;99.90
8332;DHT22;4203;48.144;14.118;2023-06-14T05:47:51;15.50;99.90
8332;DHT22;4203;48.144;14.118;2023-06-14T05:50:20;15.60;99.90
8332;DHT22;4203;48.144;14.118;2023-06-14T05:52:47;15.70;99.90
8332;DHT22;4203;48.144;14.118;2023-06-14T05:55:16;15.80;99.90
8332;DHT22;4203;48.144;14.118;2023-06-14T05:57:43;16.10;99.90
8332;DHT22;4203;48.144;14.118;2023-06-14T06:00:13;16.20;99.90
8332;DHT22;4203;48.144;14.118;2023-06-14T06:02:41;16.30;99.90
8332;DHT22;4203;48.144;14.118;2023-06-14T06:05:09;16.50;99.90
8332;DHT22;4203;48.144;14.118;2023-06-14T06:07:36;16.40;99.90
8332;DHT22;4203;48.144;14.118;2023-06-14T06:10:05;16.40;99.90
8332;DHT22;4203;48.144;14.118;2023-06-14T06:12:32;16.60;99.90
8332;DHT22;4203;48.144;14.118;2023-06-14T06:15:00;16.80;99.90
8332;DHT22;4203;48.144;14.118;2023-06-14T06:17:28;17.10;99.90
8332;DHT22;4203;48.144;14.118;2023-06-14T06:19:55;17.20;99.90
8332;DHT22;4203;48.144;14.118;2023-06-14T06:22:22;17.40;99.90
8332;DHT22;4203;48.144;14.118;2023-06-14T06:24:50;17.70;99.90
8332;DHT22;4203;48.144;14.118;2023-06-14T06:27:17;18.00;99.90
8332;DHT22;4203;48.144;14.118;2023-06-14T06:29:46;18.20;99.90
8332;DHT22;4203;48.144;14.118;2023-06-14T06:32:14;18.30;99.90
8332;DHT22;4203;48.144;14.118;2023-06-14T06:34:42;18.40;99.90
8332;DHT22;4203;48.144;14.118;2023-06-14T06:37:10;18.50;99.90
8332;DHT22;4203;48.144;14.118;2023-06-14T06:39:38;18.70;99.90
8332;DHT22;4203;48.144;14.118;2023-06-14T06:42:05;18.90;99.90
8332;DHT22;4203;48.144;14.118;2023-06-14T06:44:32;19.20;99.90
8332;DHT22;4203;48.144;14.118;2023-06-14T06:46:59;19.40;99.90
8332;DHT22;4203;48.144;14.118;2023-06-14T06:49:28;19.50;99.90
8332;DHT22;4203;48.144;14.118;2023-06-14T06:52:04;19.70;99.90
8332;DHT22;4203;48.144;14.118;2023-06-14T06:54:32;19.90;99.90
8332;DHT22;4203;48.144;14.118;2023-06-14T06:56:59;20.20;99.90
8332;DHT22;4203;48.144;14.118;2023-06-14T06:59:27;20.20;99.90
8332;DHT22;4203;48.144;14.118;2023-06-14T07:01:54;20.30;99.90
8332;DHT22;4203;48.144;14.118;2023-06-14T07:04:21;20.40;99.90
8332;DHT22;4203;48.144;14.118;2023-06-14T07:06:48;20.60;99.90
8332;DHT22;4203;48.144;14.118;2023-06-14T07:09:17;20.70;99.90
8332;DHT22;4203;48.144;14.118;2023-06-14T07:11:46;20.90;99.90
8332;DHT22;4203;48.144;14.118;2023-06-14T07:14:13;21.10;99.90
8332;DHT22;4203;48.144;14.118;2023-06-14T07:16:40;21.00;99.90
8332;DHT22;4203;48.144;14.118;2023-06-14T07:19:08;21.10;99.90
8332;DHT22;4203;48.144;14.118;2023-06-14T07:21:36;21.20;99.90
8332;DHT22;4203;48.144;14.118;2023-06-14T07:24:05;21.00;99.90
8332;DHT22;4203;48.144;14.118;2023-06-14T07:26:35;21.10;99.90
8332;DHT22;4203;48.144;14.118;2023-06-14T07:29:02;21.50;99.90
8332;DHT22;4203;48.144;14.118;2023-06-14T07:31:29;20.90;99.90
8332;DHT22;4203;48.144;14.118;2023-06-14T07:33:57;20.90;99.90
8332;DHT22;4203;48.144;14.118;2023-06-14T07:36:24;20.80;99.90
8332;DHT22;4203;48.144;14.118;2023-06-14T07:38:51;20.90;99.90
8332;DHT22;4203;48.144;14.118;2023-06-14T07:41:18;21.00;99.90
8332;DHT22;4203;48.144;14.118;2023-06-14T07:43:46;20.90;99.90
8332;DHT22;4203;48.144;14.118;2023-06-14T07:46:15;21.30;99.90
8332;DHT22;4203;48.144;14.118;2023-06-14T07:48:42;21.70;99.90
8332;DHT22;4203;48.144;14.118;2023-06-14T07:51:09;21.80;99.90
8332;DHT22;4203;48.144;14.118;2023-06-14T07:53:36;22.10;99.90
8332;DHT22;4203;48.144;14.118;2023-06-14T07:56:03;22.60;99.90
8332;DHT22;4203;48.144;14.118;2023-06-14T07:58:31;22.80;99.90
8332;DHT22;4203;48.144;14.118;2023-06-14T08:00:59;22.30;99.90
8332;DHT22;4203;48.144;14.118;2023-06-14T08:03:29;22.40;99.90
8332;DHT22;4203;48.144;14.118;2023-06-14T08:05:56;22.70;99.90
8332;DHT22;4203;48.144;14.118;2023-06-14T08:08:23;22.70;99.90
8332;DHT22;4203;48.144;14.118;2023-06-14T08:10:51;22.90;99.90
8332;DHT22;4203;48.144;14.118;2023-06-14T08:13:18;23.10;99.90
8332;DHT22;4203;48.144;14.118;2023-06-14T08:15:45;23.20;99.90
8332;DHT22;4203;48.144;14.118;2023-06-14T08:18:14;22.90;99.90
8332;DHT22;4203;48.144;14.118;2023-06-14T08:20:41;22.50;99.90
8332;DHT22;4203;48.144;14.118;2023-06-14T08:23:09;22.60;99.90
8332;DHT22;4203;48.144;14.118;2023-06-14T08:25:37;22.50;99.90
8332;DHT22;4203;48.144;14.118;2023-06-14T08:28:04;23.00;99.90
8332;DHT22;4203;48.144;14.118;2023-06-14T08:30:32;23.50;99.90
8332;DHT22;4203;48.144;14.118;2023-06-14T08:32:59;23.80;99.90
8332;DHT22;4203;48.144;14.118;2023-06-14T08:35:28;23.90;99.90
8332;DHT22;4203;48.144;14.118;2023-06-14T08:37:55;24.20;99.90
8332;DHT22;4203;48.144;14.118;2023-06-14T08:40:23;24.40;99.90
8332;DHT22;4203;48.144;14.118;2023-06-14T08:42:51;24.70;99.90
8332;DHT22;4203;48.144;14.118;2023-06-14T08:45:19;25.00;99.90
8332;DHT22;4203;48.144;14.118;2023-06-14T08:47:47;25.10;99.90
8332;DHT22;4203;48.144;14.118;2023-06-14T08:50:20;25.00;99.90
8332;DHT22;4203;48.144;14.118;2023-06-14T08:52:53;25.10;99.90
8332;DHT22;4203;48.144;14.118;2023-06-14T08:55:22;25.10;99.90
8332;DHT22;4203;48.144;14.118;2023-06-14T08:57:51;25.10;99.90
8332;DHT22;4203;48.144;14.118;2023-06-14T09:00:20;25.10;99.90
8332;DHT22;4203;48.144;14.118;2023-06-14T09:02:48;25.00;99.90
8332;DHT22;4203;48.144;14.118;2023-06-14T09:05:16;25.10;99.90
8332;DHT22;4203;48.144;14.118;2023-06-14T09:07:44;25.30;99.90
8332;DHT22;4203;48.144;14.118;2023-06-14T09:10:14;25.40;99.90
8332;DHT22;4203;48.144;14.118;2023-06-14T09:12:42;25.60;99.90
8332;DHT22;4203;48.144;14.118;2023-06-14T09:15:10;25.70;99.90
8332;DHT22;4203;48.144;14.118;2023-06-14T09:17:38;25.80;99.90
8332;DHT22;4203;48.144;14.118;2023-06-14T09:20:07;25.70;99.90
8332;DHT22;4203;48.144;14.118;2023-06-14T09:22:37;25.50;99.70
8332;DHT22;4203;48.144;14.118;2023-06-14T09:25:05;24.70;99.90
8332;DHT22;4203;48.144;14.118;2023-06-14T09:27:34;24.60;99.90
8332;DHT22;4203;48.144;14.118;2023-06-14T09:30:06;24.90;99.90
8332;DHT22;4203;48.144;14.118;2023-06-14T09:32:37;25.40;99.90
8332;DHT22;4203;48.144;14.118;2023-06-14T09:35:07;25.60;99.90
8332;DHT22;4203;48.144;14.118;2023-06-14T09:37:34;25.80;99.90
8332;DHT22;4203;48.144;14.118;2023-06-14T09:40:05;26.20;99.90
8332;DHT22;4203;48.144;14.118;2023-06-14T09:42:34;26.60;99.70
8332;DHT22;4203;48.144;14.118;2023-06-14T09:45:03;26.70;99.20
8332;DHT22;4203;48.144;14.118;2023-06-14T09:47:31;26.50;99.90
8332;DHT22;4203;48.144;14.118;2023-06-14T09:49:58;26.40;99.80
8332;DHT22;4203;48.144;14.118;2023-06-14T09:52:27;26.50;99.90
8332;DHT22;4203;48.144;14.118;2023-06-14T09:54:55;26.70;99.10
8332;DHT22;4203;48.144;14.118;2023-06-14T09:57:23;26.80;99.40
8332;DHT22;4203;48.144;14.118;2023-06-14T09:59:57;26.90;97.10
8332;DHT22;4203;48.144;14.118;2023-06-14T10:02:27;26.80;99.20
8332;DHT22;4203;48.144;14.118;2023-06-14T10:04:58;27.10;99.30
8332;DHT22;4203;48.144;14.118;2023-06-14T10:07:32;27.50;99.10
8332;DHT22;4203;48.144;14.118;2023-06-14T10:10:01;27.40;98.10
8332;DHT22;4203;48.144;14.118;2023-06-14T10:12:28;27.60;98.80
8332;DHT22;4203;48.144;14.118;2023-06-14T10:14:58;27.90;97.40
8332;DHT22;4203;48.144;14.118;2023-06-14T10:17:35;27.50;97.20
8332;DHT22;4203;48.144;14.118;2023-06-14T10:20:19;27.50;98.50
8332;DHT22;4203;48.144;14.118;2023-06-14T10:22:51;27.70;98.90
8332;DHT22;4203;48.144;14.118;2023-06-14T10:25:26;28.00;96.50
8332;DHT22;4203;48.144;14.118;2023-06-14T10:28:03;27.90;98.00
8332;DHT22;4203;48.144;14.118;2023-06-14T10:30:32;27.90;97.40
8332;DHT22;4203;48.144;14.118;2023-06-14T10:33:07;28.20;97.10
8332;DHT22;4203;48.144;14.118;2023-06-14T10:35:35;28.00;95.80
8332;DHT22;4203;48.144;14.118;2023-06-14T10:38:09;27.60;95.70
8332;DHT22;4203;48.144;14.118;2023-06-14T10:40:36;27.80;97.50
8332;DHT22;4203;48.144;14.118;2023-06-14T10:43:20;27.20;93.70
8332;DHT22;4203;48.144;14.118;2023-06-14T10:46:17;27.30;96.00
8332;DHT22;4203;48.144;14.118;2023-06-14T10:48:47;27.40;92.70
8332;DHT22;4203;48.144;14.118;2023-06-14T10:51:18;26.80;98.60
8332;DHT22;4203;48.144;14.118;2023-06-14T10:53:47;26.80;97.20
8332;DHT22;4203;48.144;14.118;2023-06-14T10:56:27;27.20;96.30
8332;DHT22;4203;48.144;14.118;2023-06-14T10:58:55;27.60;95.40
8332;DHT22;4203;48.144;14.118;2023-06-14T11:01:36;28.00;94.60
8332;DHT22;4203;48.144;14.118;2023-06-14T11:04:10;28.50;92.20
8332;DHT22;4203;48.144;14.118;2023-06-14T11:06:56;28.40;94.90
8332;DHT22;4203;48.144;14.118;2023-06-14T11:10:09;28.90;94.30
8332;DHT22;4203;48.144;14.118;2023-06-14T11:12:39;28.50;92.60
8332;DHT22;4203;48.144;14.118;2023-06-14T11:15:08;27.90;92.10
8332;DHT22;4203;48.144;14.118;2023-06-14T11:17:37;27.20;93.40
8332;DHT22;4203;48.144;14.118;2023-06-14T11:20:11;27.00;95.80
8332;DHT22;4203;48.144;14.118;2023-06-14T11:22:41;26.80;96.70
8332;DHT22;4203;48.144;14.118;2023-06-14T11:25:10;27.20;97.00
8332;DHT22;4203;48.144;14.118;2023-06-14T11:27:38;27.90;93.80
8332;DHT22;4203;48.144;14.118;2023-06-14T11:30:08;28.40;97.40
8332;DHT22;4203;48.144;14.118;2023-06-14T11:32:37;29.00;92.50
8332;DHT22;4203;48.144;14.118;2023-06-14T11:35:05;29.20;90.30
8332;DHT22;4203;48.144;14.118;2023-06-14T11:37:32;29.20;89.20
8332;DHT22;4203;48.144;14.118;2023-06-14T11:40:00;28.50;92.20
8332;DHT22;4203;48.144;14.118;2023-06-14T11:42:29;28.60;91.80
8332;DHT22;4203;48.144;14.118;2023-06-14T11:44:56;28.80;91.60
8332;DHT22;4203;48.144;14.118;2023-06-14T11:47:23;28.90;90.30
8332;DHT22;4203;48.144;14.118;2023-06-14T11:49:52;28.90;93.80
8332;DHT22;4203;48.144;14.118;2023-06-14T11:52:19;29.20;91.00
8332;DHT22;4203;48.144;14.118;2023-06-14T11:54:48;29.60;97.20
8332;DHT22;4203;48.144;14.118;2023-06-14T11:57:15;30.10;92.10
8332;DHT22;4203;48.144;14.118;2023-06-14T11:59:44;30.10;92.70
8332;DHT22;4203;48.144;14.118;2023-06-14T12:02:14;30.20;90.40
8332;DHT22;4203;48.144;14.118;2023-06-14T12:04:42;30.00;92.70
8332;DHT22;4203;48.144;14.118;2023-06-14T12:07:11;30.10;91.30
8332;DHT22;4203;48.144;14.118;2023-06-14T12:09:41;30.20;90.30
8332;DHT22;4203;48.144;14.118;2023-06-14T12:12:11;29.90;87.40
8332;DHT22;4203;48.144;14.118;2023-06-14T12:14:41;29.60;90.30
8332;DHT22;4203;48.144;14.118;2023-06-14T12:17:09;29.20;91.50
8332;DHT22;4203;48.144;14.118;2023-06-14T12:19:42;29.10;88.90
8332;DHT22;4203;48.144;14.118;2023-06-14T12:22:11;29.60;95.00
8332;DHT22;4203;48.144;14.118;2023-06-14T12:24:38;30.20;93.90
8332;DHT22;4203;48.144;14.118;2023-06-14T12:27:06;30.60;91.10
8332;DHT22;4203;48.144;14.118;2023-06-14T12:29:33;30.20;90.10
8332;DHT22;4203;48.144;14.118;2023-06-14T12:32:01;29.60;90.10
8332;DHT22;4203;48.144;14.118;2023-06-14T12:34:28;28.90;90.00
8332;DHT22;4203;48.144;14.118;2023-06-14T12:36:56;28.30;88.30
8332;DHT22;4203;48.144;14.118;2023-06-14T12:39:25;27.50;89.40
8332;DHT22;4203;48.144;14.118;2023-06-14T12:41:53;27.30;93.20
8332;DHT22;4203;48.144;14.118;2023-06-14T12:44:20;27.00;94.70
8332;DHT22;4203;48.144;14.118;2023-06-14T12:46:47;27.40;95.60
8332;DHT22;4203;48.144;14.118;2023-06-14T12:49:17;28.00;94.00
8332;DHT22;4203;48.144;14.118;2023-06-14T12:51:44;28.30;93.80
8332;DHT22;4203;48.144;14.118;2023-06-14T12:54:11;28.70;96.40
8332;DHT22;4203;48.144;14.118;2023-06-14T12:56:41;29.10;94.10
8332;DHT22;4203;48.144;14.118;2023-06-14T12:59:10;29.50;93.80
8332;DHT22;4203;48.144;14.118;2023-06-14T13:01:38;29.80;93.20
8332;DHT22;4203;48.144;14.118;2023-06-14T13:04:06;29.80;91.80
8332;DHT22;4203;48.144;14.118;2023-06-14T13:06:33;29.90;93.30
8332;DHT22;4203;48.144;14.118;2023-06-14T13:09:00;30.00;91.30
8332;DHT22;4203;48.144;14.118;2023-06-14T13:11:29;30.00;93.00
8332;DHT22;4203;48.144;14.118;2023-06-14T13:13:58;29.50;90.60
8332;DHT22;4203;48.144;14.118;2023-06-14T13:16:25;29.30;90.60
8332;DHT22;4203;48.144;14.118;2023-06-14T13:18:52;28.90;90.50
8332;DHT22;4203;48.144;14.118;2023-06-14T13:21:19;28.70;92.00
8332;DHT22;4203;48.144;14.118;2023-06-14T13:23:46;28.70;90.60
8332;DHT22;4203;48.144;14.118;2023-06-14T13:26:13;28.70;92.20
8332;DHT22;4203;48.144;14.118;2023-06-14T13:28:40;28.70;92.20
8332;DHT22;4203;48.144;14.118;2023-06-14T13:31:09;28.90;91.90
8332;DHT22;4203;48.144;14.118;2023-06-14T13:33:36;28.70;90.10
8332;DHT22;4203;48.144;14.118;2023-06-14T13:36:04;28.50;91.00
8332;DHT22;4203;48.144;14.118;2023-06-14T13:38:31;28.40;92.40
8332;DHT22;4203;48.144;14.118;2023-06-14T13:40:58;28.40;90.00
8332;DHT22;4203;48.144;14.118;2023-06-14T13:43:25;28.20;88.20
8332;DHT22;4203;48.144;14.118;2023-06-14T13:45:52;27.90;90.30
8332;DHT22;4203;48.144;14.118;2023-06-14T13:48:21;27.80;88.90
8332;DHT22;4203;48.144;14.118;2023-06-14T13:50:48;27.60;88.60
8332;DHT22;4203;48.144;14.118;2023-06-14T13:53:16;27.40;90.60
8332;DHT22;4203;48.144;14.118;2023-06-14T13:55:43;27.40;89.60
8332;DHT22;4203;48.144;14.118;2023-06-14T13:58:10;27.50;90.00
8332;DHT22;4203;48.144;14.118;2023-06-14T14:00:37;27.30;86.00
8332;DHT22;4203;48.144;14.118;2023-06-14T14:03:06;27.20;91.00
8332;DHT22;4203;48.144;14.118;2023-06-14T14:05:36;27.20;89.90
8332;DHT22;4203;48.144;14.118;2023-06-14T14:08:03;27.20;90.00
8332;DHT22;4203;48.144;14.118;2023-06-14T14:10:30;27.20;90.70
8332;DHT22;4203;48.144;14.118;2023-06-14T14:12:58;27.10;90.20
8332;DHT22;4203;48.144;14.118;2023-06-14T14:15:25;27.10;91.60
8332;DHT22;4203;48.144;14.118;2023-06-14T14:17:54;27.00;88.00
8332;DHT22;4203;48.144;14.118;2023-06-14T14:20:23;26.80;89.80
8332;DHT22;4203;48.144;14.118;2023-06-14T14:22:51;26.70;88.00
8332;DHT22;4203;48.144;14.118;2023-06-14T14:25:19;26.50;91.70
8332;DHT22;4203;48.144;14.118;2023-06-14T14:27:46;26.50;90.40
8332;DHT22;4203;48.144;14.118;2023-06-14T14:30:13;26.60;89.80
8332;DHT22;4203;48.144;14.118;2023-06-14T14:32:42;26.50;87.80
8332;DHT22;4203;48.144;14.118;2023-06-14T14:35:10;26.50;88.10
8332;DHT22;4203;48.144;14.118;2023-06-14T14:37:37;26.20;86.70
8332;DHT22;4203;48.144;14.118;2023-06-14T14:40:07;26.00;89.40
8332;DHT22;4203;48.144;14.118;2023-06-14T14:42:35;26.10;90.00
8332;DHT22;4203;48.144;14.118;2023-06-14T14:45:03;26.10;89.40
8332;DHT22;4203;48.144;14.118;2023-06-14T14:47:31;26.00;87.90
8332;DHT22;4203;48.144;14.118;2023-06-14T14:49:58;25.90;87.90
8332;DHT22;4203;48.144;14.118;2023-06-14T14:52:25;25.70;86.90
8332;DHT22;4203;48.144;14.118;2023-06-14T14:54:53;25.70;86.30
8332;DHT22;4203;48.144;14.118;2023-06-14T14:57:21;25.70;87.10
8332;DHT22;4203;48.144;14.118;2023-06-14T14:59:48;25.70;87.30
8332;DHT22;4203;48.144;14.118;2023-06-14T15:02:15;25.60;88.60
8332;DHT22;4203;48.144;14.118;2023-06-14T15:04:43;25.60;90.70
8332;DHT22;4203;48.144;14.118;2023-06-14T15:07:10;25.60;89.70
8332;DHT22;4203;48.144;14.118;2023-06-14T15:09:37;25.70;88.00
8332;DHT22;4203;48.144;14.118;2023-06-14T15:12:05;25.70;89.50
8332;DHT22;4203;48.144;14.118;2023-06-14T15:14:34;25.70;87.70
8332;DHT22;4203;48.144;14.118;2023-06-14T15:17:01;25.60;89.80
8332;DHT22;4203;48.144;14.118;2023-06-14T15:19:28;25.60;86.80
8332;DHT22;4203;48.144;14.118;2023-06-14T15:21:55;25.50;90.20
8332;DHT22;4203;48.144;14.118;2023-06-14T15:24:24;25.30;87.10
8332;DHT22;4203;48.144;14.118;2023-06-14T15:26:51;25.10;87.70
8332;DHT22;4203;48.144;14.118;2023-06-14T15:29:18;25.00;86.80
8332;DHT22;4203;48.144;14.118;2023-06-14T15:31:47;24.90;87.80
8332;DHT22;4203;48.144;14.118;2023-06-14T15:34:14;24.90;90.60
8332;DHT22;4203;48.144;14.118;2023-06-14T15:36:41;24.90;88.30
8332;DHT22;4203;48.144;14.118;2023-06-14T15:39:08;24.90;85.30
8332;DHT22;4203;48.144;14.118;2023-06-14T15:41:36;24.80;90.20
8332;DHT22;4203;48.144;14.118;2023-06-14T15:44:03;24.70;88.10
8332;DHT22;4203;48.144;14.118;2023-06-14T15:46:30;24.60;88.90
8332;DHT22;4203;48.144;14.118;2023-06-14T15:48:59;24.60;90.10
8332;DHT22;4203;48.144;14.118;2023-06-14T15:51:26;24.50;88.20
8332;DHT22;4203;48.144;14.118;2023-06-14T15:53:53;24.40;89.30
8332;DHT22;4203;48.144;14.118;2023-06-14T15:56:20;24.30;90.30
8332;DHT22;4203;48.144;14.118;2023-06-14T15:58:48;24.20;86.10